sensor_id;sensor_type;location;lat;lon;timestamp;pressure;altitude;pressure_sealevel;temperature;humidity
22283;BME280;11310;51.528;21.204;2023-08-24T00:02:02;100210.25;;;14.65;100.00
22283;BME280;11310;51.528;21.204;2023-08-24T00:04:31;100209.91;;;14.71;100.00
22283;BME280;11310;51.528;21.204;2023-08-24T00:07:01;100205.47;;;14.72;100.00
22283;BME280;11310;51.528;21.204;2023-08-24T00:09:30;100204.44;;;14.74;100.00
22283;BME280;11310;51.528;21.204;2023-08-24T00:11:59;100204.44;;;14.74;100.00
22283;BME280;11310;51.528;21.204;2023-08-24T00:14:29;100209.22;;;14.68;100.00
22283;BME280;11310;51.528;21.204;2023-08-24T00:16:58;100208.72;;;14.61;100.00
22283;BME280;11310;51.528;21.204;2023-08-24T00:19:27;100208.16;;;14.56;100.00
22283;BME280;11310;51.528;21.204;2023-08-24T00:21:56;100204.78;;;14.54;100.00
22283;BME280;11310;51.528;21.204;2023-08-24T00:24:25;100206.69;;;14.52;100.00
22283;BME280;11310;51.528;21.204;2023-08-24T00:26:54;100203.66;;;14.58;100.00
22283;BME280;11310;51.528;21.204;2023-08-24T00:29:27;100205.94;;;14.64;100.00
22283;BME280;11310;51.528;21.204;2023-08-24T00:31:58;100209.44;;;14.65;100.00
22283;BME280;11310;51.528;21.204;2023-08-24T00:34:30;100204.97;;;14.65;100.00
22283;BME280;11310;51.528;21.204;2023-08-24T00:37:02;100208.56;;;14.64;100.00
22283;BME280;11310;51.528;21.204;2023-08-24T00:39:31;100208.47;;;14.66;100.00
22283;BME280;11310;51.528;21.204;2023-08-24T00:42:03;100210.09;;;14.68;100.00
22283;BME280;11310;51.528;21.204;2023-08-24T00:44:33;100210.56;;;14.75;100.00
22283;BME280;11310;51.528;21.204;2023-08-24T00:47:09;100218.91;;;14.83;100.00
22283;BME280;11310;51.528;21.204;2023-08-24T00:49:40;100218.03;;;14.82;100.00
22283;BME280;11310;51.528;21.204;2023-08-24T00:52:10;100206.72;;;14.80;100.00
22283;BME280;11310;51.528;21.204;2023-08-24T00:54:39;100218.03;;;14.82;100.00
22283;BME280;11310;51.528;21.204;2023-08-24T00:57:10;100219.56;;;14.86;100.00
22283;BME280;11310;51.528;21.204;2023-08-24T00:59:39;100213.31;;;14.87;100.00
22283;BME280;11310;51.528;21.204;2023-08-24T01:02:10;100218.03;;;14.96;100.00
22283;BME280;11310;51.528;21.204;2023-08-24T01:04:40;100209.00;;;15.00;100.00
22283;BME280;11310;51.528;21.204;2023-08-24T01:07:10;100215.03;;;15.02;100.00
22283;BME280;11310;51.528;21.204;2023-08-24T01:09:40;100201.53;;;15.07;100.00
22283;BME280;11310;51.528;21.204;2023-08-24T01:12:15;100207.69;;;15.07;100.00
22283;BME280;11310;51.528;21.204;2023-08-24T01:14:53;100206.66;;;15.10;100.00
22283;BME280;11310;51.528;21.204;2023-08-24T01:17:30;100210.78;;;15.14;100.00
22283;BME280;11310;51.528;21.204;2023-08-24T01:20:05;100206.25;;;15.16;100.00
22283;BME280;11310;51.528;21.204;2023-08-24T01:22:40;100208.81;;;15.17;100.00
22283;BME280;11310;51.528;21.204;2023-08-24T01:25:15;100214.66;;;15.22;100.00
22283;BME280;11310;51.528;21.204;2023-08-24T01:27:48;100205.78;;;15.23;100.00
22283;BME280;11310;51.528;21.204;2023-08-24T01:30:18;100202.19;;;15.24;100.00
22283;BME280;11310;51.528;21.204;2023-08-24T01:32:56;100202.00;;;15.27;100.00
22283;BME280;11310;51.528;21.204;2023-08-24T01:35:25;100203.44;;;15.33;100.00
22283;BME280;11310;51.528;21.204;2023-08-24T01:37:54;100205.81;;;15.37;100.00
22283;BME280;11310;51.528;21.204;2023-08-24T01:40:29;100209.09;;;15.41;100.00
22283;BME280;11310;51.528;21.204;2023-08-24T01:43:07;100205.41;;;15.43;100.00
22283;BME280;11310;51.528;21.204;2023-08-24T01:45:41;100205.03;;;15.49;100.00
22283;BME280;11310;51.528;21.204;2023-08-24T01:48:53;100202.41;;;15.49;100.00
22283;BME280;11310;51.528;21.204;2023-08-24T01:52:21;100195.78;;;15.42;100.00
22283;BME280;11310;51.528;21.204;2023-08-24T02:01:17;100198.06;;;15.34;100.00
22283;BME280;11310;51.528;21.204;2023-08-24T02:07:32;100193.13;;;15.28;100.00
22283;BME280;11310;51.528;21.204;2023-08-24T02:10:03;100189.75;;;15.26;100.00
22283;BME280;11310;51.528;21.204;2023-08-24T02:12:33;100189.66;;;15.28;100.00
22283;BME280;11310;51.528;21.204;2023-08-24T02:15:03;100185.97;;;15.30;100.00
22283;BME280;11310;51.528;21.204;2023-08-24T02:17:33;100187.84;;;15.28;100.00
22283;BME280;11310;51.528;21.204;2023-08-24T02:20:03;100190.56;;;15.27;100.00
22283;BME280;11310;51.528;21.204;2023-08-24T02:22:33;100190.66;;;15.25;100.00
22283;BME280;11310;51.528;21.204;2023-08-24T02:25:02;100187.94;;;15.27;100.00
22283;BME280;11310;51.528;21.204;2023-08-24T02:27:32;100201.72;;;15.32;100.00
22283;BME280;11310;51.528;21.204;2023-08-24T02:30:02;100192.69;;;15.36;100.00
22283;BME280;11310;51.528;21.204;2023-08-24T02:32:31;100195.31;;;15.36;100.00
22283;BME280;11310;51.528;21.204;2023-08-24T02:35:01;100191.03;;;15.33;100.00
22283;BME280;11310;51.528;21.204;2023-08-24T02:37:30;100191.34;;;15.29;100.00
22283;BME280;11310;51.528;21.204;2023-08-24T02:40:01;100194.06;;;15.27;100.00
22283;BME280;11310;51.528;21.204;2023-08-24T02:42:30;100188.03;;;15.25;100.00
22283;BME280;11310;51.528;21.204;2023-08-24T02:45:00;100187.28;;;15.23;100.00
22283;BME280;11310;51.528;21.204;2023-08-24T02:47:28;100190.88;;;15.22;100.00
22283;BME280;11310;51.528;21.204;2023-08-24T02:49:58;100190.88;;;15.22;100.00
22283;BME280;11310;51.528;21.204;2023-08-24T02:52:29;100182.09;;;15.22;100.00
22283;BME280;11310;51.528;21.204;2023-08-24T02:54:58;100185.03;;;15.17;100.00
22283;BME280;11310;51.528;21.204;2023-08-24T02:57:27;100182.75;;;15.11;100.00
22283;BME280;11310;51.528;21.204;2023-08-24T02:59:56;100174.47;;;15.03;100.00
22283;BME280;11310;51.528;21.204;2023-08-24T03:02:25;100186.91;;;15.01;100.00
22283;BME280;11310;51.528;21.204;2023-08-24T03:04:54;100178.41;;;14.96;100.00
22283;BME280;11310;51.528;21.204;2023-08-24T03:07:24;100180.97;;;14.98;100.00
22283;BME280;11310;51.528;21.204;2023-08-24T03:09:59;100186.34;;;14.96;100.00
22283;BME280;11310;51.528;21.204;2023-08-24T03:12:28;100184.09;;;14.90;100.00
22283;BME280;11310;51.528;21.204;2023-08-24T03:14:56;100195.88;;;14.85;100.00
22283;BME280;11310;51.528;21.204;2023-08-24T03:17:25;100195.47;;;14.77;100.00
22283;BME280;11310;51.528;21.204;2023-08-24T03:19:55;100191.69;;;14.67;100.00
22283;BME280;11310;51.528;21.204;2023-08-24T03:22:28;100201.59;;;14.63;100.00
22283;BME280;11310;51.528;21.204;2023-08-24T03:24:59;100194.31;;;14.53;100.00
22283;BME280;11310;51.528;21.204;2023-08-24T03:27:28;100193.81;;;14.46;100.00
22283;BME280;11310;51.528;21.204;2023-08-24T03:29:57;100192.28;;;14.42;100.00
22283;BME280;11310;51.528;21.204;2023-08-24T03:32:31;100197.69;;;14.41;100.00
22283;BME280;11310;51.528;21.204;2023-08-24T03:35:06;100197.56;;;14.42;100.00
22283;BME280;11310;51.528;21.204;2023-08-24T03:37:35;100198.34;;;14.44;100.00
22283;BME280;11310;51.528;21.204;2023-08-24T03:40:09;100201.72;;;14.46;100.00
22283;BME280;11310;51.528;21.204;2023-08-24T03:42:42;100197.22;;;14.48;100.00
22283;BME280;11310;51.528;21.204;2023-08-24T03:45:11;100193.81;;;14.46;100.00
22283;BME280;11310;51.528;21.204;2023-08-24T03:47:40;100200.13;;;14.44;100.00
22283;BME280;11310;51.528;21.204;2023-08-24T03:50:10;100187.97;;;14.41;100.00
22283;BME280;11310;51.528;21.204;2023-08-24T03:52:38;100194.19;;;14.40;100.00
22283;BME280;11310;51.528;21.204;2023-08-24T03:55:09;100195.22;;;14.38;100.00
22283;BME280;11310;51.528;21.204;2023-08-24T03:57:38;100189.06;;;14.37;100.00
22283;BME280;11310;51.528;21.204;2023-08-24T04:00:09;100194.34;;;14.37;100.00
22283;BME280;11310;51.528;21.204;2023-08-24T04:02:42;100197.94;;;14.36;100.00
22283;BME280;11310;51.528;21.204;2023-08-24T04:05:22;100199.63;;;14.37;100.00
22283;BME280;11310;51.528;21.204;2023-08-24T04:07:57;100199.63;;;14.37;100.00
22283;BME280;11310;51.528;21.204;2023-08-24T04:10:34;100198.03;;;14.35;100.00
22283;BME280;11310;51.528;21.204;2023-08-24T04:13:06;100209.16;;;14.40;100.00
22283;BME280;11310;51.528;21.204;2023-08-24T04:15:38;100201.31;;;14.38;100.00
22283;BME280;11310;51.528;21.204;2023-08-24T04:18:09;100200.50;;;14.38;100.00
22283;BME280;11310;51.528;21.204;2023-08-24T04:20:40;100197.00;;;14.37;100.00
22283;BME280;11310;51.528;21.204;2023-08-24T04:23:09;100197.78;;;14.39;100.00
22283;BME280;11310;51.528;21.204;2023-08-24T04:25:40;100197.78;;;14.39;100.00
22283;BME280;11310;51.528;21.204;2023-08-24T04:28:11;100195.97;;;14.40;100.00
22283;BME280;11310;51.528;21.204;2023-08-24T04:30:49;100195.88;;;14.41;100.00
22283;BME280;11310;51.528;21.204;2023-08-24T04:33:20;100202.84;;;14.42;100.00
22283;BME280;11310;51.528;21.204;2023-08-24T04:35:50;100194.00;;;14.43;100.00
22283;BME280;11310;51.528;21.204;2023-08-24T04:38:20;100191.00;;;14.49;100.00
22283;BME280;11310;51.528;21.204;2023-08-24T04:40:51;100195.16;;;14.53;100.00
22283;BME280;11310;51.528;21.204;2023-08-24T04:43:23;100194.78;;;14.59;100.00
22283;BME280;11310;51.528;21.204;2023-08-24T04:45:57;100199.69;;;14.65;100.00
22283;BME280;11310;51.528;21.204;2023-08-24T04:48:26;100200.19;;;14.72;100.00
22283;BME280;11310;51.528;21.204;2023-08-24T04:51:00;100202.19;;;14.82;100.00
22283;BME280;11310;51.528;21.204;2023-08-24T04:53:30;100205.13;;;14.92;100.00
22283;BME280;11310;51.528;21.204;2023-08-24T04:56:01;100195.69;;;15.02;100.00
22283;BME280;11310;51.528;21.204;2023-08-24T04:58:32;100201.25;;;15.11;100.00
22283;BME280;11310;51.528;21.204;2023-08-24T05:01:05;100198.25;;;15.17;100.00
22283;BME280;11310;51.528;21.204;2023-08-24T05:03:34;100200.50;;;15.23;100.00
22283;BME280;11310;51.528;21.204;2023-08-24T05:06:04;100207.00;;;15.32;100.00
22283;BME280;11310;51.528;21.204;2023-08-24T05:08:33;100204.59;;;15.43;100.00
22283;BME280;11310;51.528;21.204;2023-08-24T05:11:11;100204.84;;;15.52;100.00
22283;BME280;11310;51.528;21.204;2023-08-24T05:13:41;100213.22;;;15.59;100.00
22283;BME280;11310;51.528;21.204;2023-08-24T05:16:12;100216.34;;;15.65;100.00
22283;BME280;11310;51.528;21.204;2023-08-24T05:18:41;100211.59;;;15.70;100.00
22283;BME280;11310;51.528;21.204;2023-08-24T05:21:11;100218.22;;;15.77;100.00
22283;BME280;11310;51.528;21.204;2023-08-24T05:23:40;100216.75;;;15.86;100.00
22283;BME280;11310;51.528;21.204;2023-08-24T05:26:11;100214.38;;;15.95;100.00
22283;BME280;11310;51.528;21.204;2023-08-24T05:28:41;100210.28;;;16.04;100.00
22283;BME280;11310;51.528;21.204;2023-08-24T05:31:15;100217.44;;;16.16;100.00
22283;BME280;11310;51.528;21.204;2023-08-24T05:33:48;100206.22;;;16.25;100.00
22283;BME280;11310;51.528;21.204;2023-08-24T05:36:17;100214.09;;;16.39;100.00
22283;BME280;11310;51.528;21.204;2023-08-24T05:38:47;100210.78;;;16.49;100.00
22283;BME280;11310;51.528;21.204;2023-08-24T05:41:23;100215.22;;;16.61;100.00
22283;BME280;11310;51.528;21.204;2023-08-24T05:43:53;100218.03;;;16.72;100.00
22283;BME280;11310;51.528;21.204;2023-08-24T05:46:26;100221.63;;;16.84;100.00
22283;BME280;11310;51.528;21.204;2023-08-24T05:48:57;100224.28;;;16.96;100.00
22283;BME280;11310;51.528;21.204;2023-08-24T05:51:27;100220.81;;;17.08;100.00
22283;BME280;11310;51.528;21.204;2023-08-24T05:53:56;100221.63;;;17.21;100.00
22283;BME280;11310;51.528;21.204;2023-08-24T05:56:27;100219.81;;;17.34;100.00
22283;BME280;11310;51.528;21.204;2023-08-24T05:58:57;100224.59;;;17.54;100.00
22283;BME280;11310;51.528;21.204;2023-08-24T06:01:28;100223.03;;;17.75;100.00
22283;BME280;11310;51.528;21.204;2023-08-24T06:03:57;100218.09;;;17.94;100.00
22283;BME280;11310;51.528;21.204;2023-08-24T06:06:27;100212.59;;;18.08;100.00
22283;BME280;11310;51.528;21.204;2023-08-24T06:08:56;100214.88;;;18.25;100.00
22283;BME280;11310;51.528;21.204;2023-08-24T06:11:27;100209.41;;;18.39;100.00
22283;BME280;11310;51.528;21.204;2023-08-24T06:13:57;100215.78;;;18.60;100.00
22283;BME280;11310;51.528;21.204;2023-08-24T06:16:31;100212.66;;;18.77;100.00
22283;BME280;11310;51.528;21.204;2023-08-24T06:19:00;100203.63;;;18.91;100.00
22283;BME280;11310;51.528;21.204;2023-08-24T06:21:30;100212.47;;;19.13;100.00
22283;BME280;11310;51.528;21.204;2023-08-24T06:24:00;100206.00;;;19.28;100.00
22283;BME280;11310;51.528;21.204;2023-08-24T06:26:30;100207.69;;;19.40;100.00
22283;BME280;11310;51.528;21.204;2023-08-24T06:28:59;100216.16;;;19.56;100.00
22283;BME280;11310;51.528;21.204;2023-08-24T06:31:59;100212.84;;;19.75;100.00
22283;BME280;11310;51.528;21.204;2023-08-24T06:34:46;100206.16;;;19.91;100.00
22283;BME280;11310;51.528;21.204;2023-08-24T06:37:20;100211.09;;;20.07;100.00
22283;BME280;11310;51.528;21.204;2023-08-24T06:39:49;100213.75;;;20.18;100.00
22283;BME280;11310;51.528;21.204;2023-08-24T06:42:20;100211.50;;;20.34;99.55
22283;BME280;11310;51.528;21.204;2023-08-24T06:44:50;100211.19;;;20.48;98.80
22283;BME280;11310;51.528;21.204;2023-08-24T06:47:19;100218.75;;;20.63;98.38
22283;BME280;11310;51.528;21.204;2023-08-24T06:50:10;100219.28;;;20.78;98.12
22283;BME280;11310;51.528;21.204;2023-08-24T06:52:40;100219.13;;;20.91;97.20
22283;BME280;11310;51.528;21.204;2023-08-24T06:55:09;100222.00;;;20.99;97.85
22283;BME280;11310;51.528;21.204;2023-08-24T06:57:41;100221.91;;;21.10;97.30
22283;BME280;11310;51.528;21.204;2023-08-24T07:00:11;100217.06;;;21.24;96.89
22283;BME280;11310;51.528;21.204;2023-08-24T07:02:43;100217.69;;;21.37;96.78
22283;BME280;11310;51.528;21.204;2023-08-24T07:05:13;100217.47;;;21.50;96.18
22283;BME280;11310;51.528;21.204;2023-08-24T07:07:45;100215.81;;;21.58;94.56
22283;BME280;11310;51.528;21.204;2023-08-24T07:10:15;100219.84;;;21.73;94.64
22283;BME280;11310;51.528;21.204;2023-08-24T07:12:46;100207.34;;;21.93;93.24
22283;BME280;11310;51.528;21.204;2023-08-24T07:15:15;100213.28;;;22.06;92.80
22283;BME280;11310;51.528;21.204;2023-08-24T07:17:45;100214.28;;;22.24;92.52
22283;BME280;11310;51.528;21.204;2023-08-24T07:23:06;100219.44;;;22.55;89.94
22283;BME280;11310;51.528;21.204;2023-08-24T07:25:35;100222.22;;;22.73;89.39
22283;BME280;11310;51.528;21.204;2023-08-24T07:28:07;100227.00;;;22.79;88.84
22283;BME280;11310;51.528;21.204;2023-08-24T07:30:37;100220.66;;;22.89;89.81
22283;BME280;11310;51.528;21.204;2023-08-24T07:33:12;100229.75;;;23.06;88.90
22283;BME280;11310;51.528;21.204;2023-08-24T07:35:41;100239.31;;;23.18;87.87
22283;BME280;11310;51.528;21.204;2023-08-24T07:38:11;100235.91;;;23.35;86.89
22283;BME280;11310;51.528;21.204;2023-08-24T07:40:40;100229.63;;;23.53;85.89
22283;BME280;11310;51.528;21.204;2023-08-24T07:43:12;100237.72;;;23.71;85.14
22283;BME280;11310;51.528;21.204;2023-08-24T07:45:42;100236.56;;;23.83;85.15
22283;BME280;11310;51.528;21.204;2023-08-24T07:48:11;100239.38;;;23.91;84.39
22283;BME280;11310;51.528;21.204;2023-08-24T07:50:42;100232.88;;;24.11;83.28
22283;BME280;11310;51.528;21.204;2023-08-24T07:53:12;100227.72;;;24.27;83.24
22283;BME280;11310;51.528;21.204;2023-08-24T07:55:42;100227.84;;;24.43;81.74
22283;BME280;11310;51.528;21.204;2023-08-24T07:58:22;100216.88;;;24.54;81.07
22283;BME280;11310;51.528;21.204;2023-08-24T08:00:53;100224.09;;;24.71;79.18
22283;BME280;11310;51.528;21.204;2023-08-24T08:07:04;100226.09;;;24.86;78.95
22283;BME280;11310;51.528;21.204;2023-08-24T08:09:33;100224.88;;;25.06;78.02
22283;BME280;11310;51.528;21.204;2023-08-24T08:12:03;100230.16;;;25.16;76.53
22283;BME280;11310;51.528;21.204;2023-08-24T08:14:34;100221.47;;;25.22;76.44
22283;BME280;11310;51.528;21.204;2023-08-24T08:17:03;100218.41;;;25.34;74.76
22283;BME280;11310;51.528;21.204;2023-08-24T08:19:34;100219.16;;;25.52;73.05
22283;BME280;11310;51.528;21.204;2023-08-24T08:22:05;100214.97;;;25.58;72.85
22283;BME280;11310;51.528;21.204;2023-08-24T08:24:36;100221.59;;;25.71;74.14
22283;BME280;11310;51.528;21.204;2023-08-24T08:27:05;100223.94;;;25.74;72.03
22283;BME280;11310;51.528;21.204;2023-08-24T08:29:37;100214.41;;;25.80;71.62
22283;BME280;11310;51.528;21.204;2023-08-24T08:32:06;100222.56;;;26.04;70.97
22283;BME280;11310;51.528;21.204;2023-08-24T08:34:36;100225.66;;;26.25;69.86
22283;BME280;11310;51.528;21.204;2023-08-24T08:37:05;100223.19;;;26.39;69.50
22283;BME280;11310;51.528;21.204;2023-08-24T08:39:33;100224.34;;;26.53;69.44
22283;BME280;11310;51.528;21.204;2023-08-24T08:42:03;100219.03;;;26.69;69.59
22283;BME280;11310;51.528;21.204;2023-08-24T08:44:32;100210.75;;;26.70;68.59
22283;BME280;11310;51.528;21.204;2023-08-24T08:47:04;100212.28;;;26.65;68.18
22283;BME280;11310;51.528;21.204;2023-08-24T08:49:34;100217.97;;;26.78;67.55
22283;BME280;11310;51.528;21.204;2023-08-24T08:52:06;100223.03;;;26.89;68.00
22283;BME280;11310;51.528;21.204;2023-08-24T08:54:38;100215.78;;;27.05;64.00
22283;BME280;11310;51.528;21.204;2023-08-24T08:57:09;100210.75;;;27.18;65.98
22283;BME280;11310;51.528;21.204;2023-08-24T08:59:38;100208.22;;;27.25;64.56
22283;BME280;11310;51.528;21.204;2023-08-24T09:02:13;100207.13;;;27.42;63.66
22283;BME280;11310;51.528;21.204;2023-08-24T09:04:45;100213.13;;;27.60;66.18
22283;BME280;11310;51.528;21.204;2023-08-24T09:07:17;100212.78;;;27.71;64.18
22283;BME280;11310;51.528;21.204;2023-08-24T09:09:53;100207.88;;;27.82;62.78
22283;BME280;11310;51.528;21.204;2023-08-24T09:12:23;100210.66;;;27.97;62.37
22283;BME280;11310;51.528;21.204;2023-08-24T09:14:52;100201.13;;;28.09;62.65
22283;BME280;11310;51.528;21.204;2023-08-24T09:17:23;100207.69;;;27.76;62.46
22283;BME280;11310;51.528;21.204;2023-08-24T09:19:58;100188.47;;;27.16;62.44
22283;BME280;11310;51.528;21.204;2023-08-24T09:22:34;100195.13;;;26.74;64.01
22283;BME280;11310;51.528;21.204;2023-08-24T09:25:06;100185.03;;;26.60;66.31
22283;BME280;11310;51.528;21.204;2023-08-24T09:27:50;100183.84;;;26.86;64.99
22283;BME280;11310;51.528;21.204;2023-08-24T09:30:34;100180.88;;;27.36;62.41
22283;BME280;11310;51.528;21.204;2023-08-24T09:33:10;100181.59;;;27.68;61.36
22283;BME280;11310;51.528;21.204;2023-08-24T09:35:40;100178.16;;;27.44;62.04
22283;BME280;11310;51.528;21.204;2023-08-24T09:38:17;100180.56;;;27.23;62.58
22283;BME280;11310;51.528;21.204;2023-08-24T09:40:51;100173.75;;;27.51;63.27
22283;BME280;11310;51.528;21.204;2023-08-24T09:43:21;100167.88;;;27.86;61.49
22283;BME280;11310;51.528;21.204;2023-08-24T09:45:51;100167.97;;;28.23;60.71
22283;BME280;11310;51.528;21.204;2023-08-24T09:48:23;100172.00;;;28.27;58.86
22283;BME280;11310;51.528;21.204;2023-08-24T09:51:03;100163.16;;;28.41;58.03
22283;BME280;11310;51.528;21.204;2023-08-24T09:53:33;100165.00;;;28.63;60.97
22283;BME280;11310;51.528;21.204;2023-08-24T09:56:06;100163.56;;;28.90;60.17
22283;BME280;11310;51.528;21.204;2023-08-24T09:58:37;100159.63;;;29.15;58.05
22283;BME280;11310;51.528;21.204;2023-08-24T10:01:08;100156.53;;;29.32;57.08
22283;BME280;11310;51.528;21.204;2023-08-24T10:03:40;100166.25;;;29.41;55.18
22283;BME280;11310;51.528;21.204;2023-08-24T10:06:11;100154.03;;;29.16;54.63
22283;BME280;11310;51.528;21.204;2023-08-24T10:08:44;100148.69;;;29.23;55.50
22283;BME280;11310;51.528;21.204;2023-08-24T10:11:19;100163.16;;;29.15;55.64
22283;BME280;11310;51.528;21.204;2023-08-24T10:14:02;100157.34;;;28.89;56.79
22283;BME280;11310;51.528;21.204;2023-08-24T10:16:36;100157.53;;;29.02;56.74
22283;BME280;11310;51.528;21.204;2023-08-24T10:19:08;100159.81;;;29.13;54.82
22283;BME280;11310;51.528;21.204;2023-08-24T10:21:38;100169.88;;;28.82;55.31
22283;BME280;11310;51.528;21.204;2023-08-24T10:24:08;100158.97;;;28.30;56.96
22283;BME280;11310;51.528;21.204;2023-08-24T10:26:48;100154.06;;;28.11;58.75
22283;BME280;11310;51.528;21.204;2023-08-24T10:29:25;100160.19;;;28.28;59.57
22283;BME280;11310;51.528;21.204;2023-08-24T10:31:55;100157.59;;;28.42;58.21
22283;BME280;11310;51.528;21.204;2023-08-24T10:34:26;100154.63;;;28.29;58.42
22283;BME280;11310;51.528;21.204;2023-08-24T10:36:55;100159.94;;;28.46;57.62
22283;BME280;11310;51.528;21.204;2023-08-24T10:39:27;100157.59;;;28.34;57.76
22283;BME280;11310;51.528;21.204;2023-08-24T10:42:00;100170.44;;;28.10;58.64
22283;BME280;11310;51.528;21.204;2023-08-24T10:44:35;100155.94;;;28.11;61.74
22283;BME280;11310;51.528;21.204;2023-08-24T10:47:10;100156.81;;;28.03;60.18
22283;BME280;11310;51.528;21.204;2023-08-24T10:49:42;100152.44;;;28.02;58.97
22283;BME280;11310;51.528;21.204;2023-08-24T10:52:19;100158.72;;;28.48;55.22
22283;BME280;11310;51.528;21.204;2023-08-24T10:54:50;100152.44;;;29.07;55.32
22283;BME280;11310;51.528;21.204;2023-08-24T10:57:25;100151.34;;;29.60;53.45
22283;BME280;11310;51.528;21.204;2023-08-24T11:00:04;100150.66;;;29.72;52.17
22283;BME280;11310;51.528;21.204;2023-08-24T11:02:44;100146.19;;;29.50;49.74
22283;BME280;11310;51.528;21.204;2023-08-24T11:05:20;100137.88;;;29.52;52.42
22283;BME280;11310;51.528;21.204;2023-08-24T11:07:51;100137.16;;;29.93;54.22
22283;BME280;11310;51.528;21.204;2023-08-24T11:10:25;100140.25;;;30.47;51.19
22283;BME280;11310;51.528;21.204;2023-08-24T11:13:09;100139.72;;;30.79;47.95
22283;BME280;11310;51.528;21.204;2023-08-24T11:15:39;100143.97;;;30.88;48.76
22283;BME280;11310;51.528;21.204;2023-08-24T11:18:19;100137.34;;;30.27;47.75
22283;BME280;11310;51.528;21.204;2023-08-24T11:20:55;100138.72;;;29.52;50.57
22283;BME280;11310;51.528;21.204;2023-08-24T11:23:28;100133.94;;;28.96;51.86
22283;BME280;11310;51.528;21.204;2023-08-24T11:25:58;100134.44;;;28.63;53.05
22283;BME280;11310;51.528;21.204;2023-08-24T11:28:29;100127.72;;;28.36;54.46
22283;BME280;11310;51.528;21.204;2023-08-24T11:30:59;100130.66;;;28.26;55.17
22283;BME280;11310;51.528;21.204;2023-08-24T11:33:29;100130.06;;;28.16;54.17
22283;BME280;11310;51.528;21.204;2023-08-24T11:36:03;100123.72;;;28.09;53.70
22283;BME280;11310;51.528;21.204;2023-08-24T11:38:36;100114.97;;;28.07;55.72
22283;BME280;11310;51.528;21.204;2023-08-24T11:41:13;100112.66;;;28.04;54.49
22283;BME280;11310;51.528;21.204;2023-08-24T11:43:43;100115.25;;;27.90;55.06
22283;BME280;11310;51.528;21.204;2023-08-24T11:46:14;100108.94;;;27.75;56.50
22283;BME280;11310;51.528;21.204;2023-08-24T11:48:46;100106.31;;;27.59;54.59
22283;BME280;11310;51.528;21.204;2023-08-24T11:51:21;100110.59;;;27.45;55.23
22283;BME280;11310;51.528;21.204;2023-08-24T11:54:04;100116.56;;;27.33;56.45
22283;BME280;11310;51.528;21.204;2023-08-24T11:56:34;100104.78;;;27.26;57.20
22283;BME280;11310;51.528;21.204;2023-08-24T11:59:03;100105.13;;;27.23;56.60
22283;BME280;11310;51.528;21.204;2023-08-24T12:01:32;100104.47;;;27.21;56.04
22283;BME280;11310;51.528;21.204;2023-08-24T12:04:02;100103.63;;;27.20;56.47
22283;BME280;11310;51.528;21.204;2023-08-24T12:06:33;100101.09;;;27.19;55.10
22283;BME280;11310;51.528;21.204;2023-08-24T12:09:04;100099.06;;;27.13;54.63
22283;BME280;11310;51.528;21.204;2023-08-24T12:11:37;100099.41;;;27.10;54.78
22283;BME280;11310;51.528;21.204;2023-08-24T12:14:07;100098.44;;;27.03;55.73
22283;BME280;11310;51.528;21.204;2023-08-24T12:16:38;100099.97;;;26.97;55.57
22283;BME280;11310;51.528;21.204;2023-08-24T12:19:07;100097.44;;;26.96;55.85
22283;BME280;11310;51.528;21.204;2023-08-24T12:22:04;100094.75;;;26.96;53.26
22283;BME280;11310;51.528;21.204;2023-08-24T12:24:46;100086.09;;;27.24;57.61
22283;BME280;11310;51.528;21.204;2023-08-24T12:27:19;100077.94;;;27.71;55.29
22283;BME280;11310;51.528;21.204;2023-08-24T12:30:40;100086.22;;;28.37;52.86
22283;BME280;11310;51.528;21.204;2023-08-24T12:37:31;100069.00;;;29.33;48.15
22283;BME280;11310;51.528;21.204;2023-08-24T12:40:09;100059.91;;;29.20;50.25
22283;BME280;11310;51.528;21.204;2023-08-24T12:46:33;100064.00;;;28.87;51.26
22283;BME280;11310;51.528;21.204;2023-08-24T12:49:26;100058.53;;;28.43;52.00
22283;BME280;11310;51.528;21.204;2023-08-24T12:52:28;100064.19;;;28.11;52.21
22283;BME280;11310;51.528;21.204;2023-08-24T12:55:17;100056.66;;;27.84;55.28
22283;BME280;11310;51.528;21.204;2023-08-24T12:57:51;100053.84;;;27.69;55.32
22283;BME280;11310;51.528;21.204;2023-08-24T13:00:28;100053.16;;;27.98;55.74
22283;BME280;11310;51.528;21.204;2023-08-24T13:03:17;100050.47;;;28.35;54.41
22283;BME280;11310;51.528;21.204;2023-08-24T13:06:04;100044.97;;;28.28;53.42
22283;BME280;11310;51.528;21.204;2023-08-24T13:08:52;100039.97;;;28.03;55.55
22283;BME280;11310;51.528;21.204;2023-08-24T13:11:24;100030.03;;;27.81;57.23
22283;BME280;11310;51.528;21.204;2023-08-24T13:13:53;100035.31;;;27.66;57.04
22283;BME280;11310;51.528;21.204;2023-08-24T13:16:22;100033.22;;;27.54;59.11
22283;BME280;11310;51.528;21.204;2023-08-24T13:18:52;100026.38;;;27.43;57.99
22283;BME280;11310;51.528;21.204;2023-08-24T13:21:24;100036.38;;;27.35;58.01
22283;BME280;11310;51.528;21.204;2023-08-24T13:23:56;100037.06;;;27.29;58.75
22283;BME280;11310;51.528;21.204;2023-08-24T13:26:27;100035.06;;;27.23;59.86
22283;BME280;11310;51.528;21.204;2023-08-24T13:28:57;100035.44;;;27.20;59.16